KFXY/FXY METAR and TAF weather

Enter ICAO airport designator
Station Type Date Time Source
KFXY METAR 2021/03/02 16:55 UTC NOAA

KFXY 021655Z AUTO 21016G22KT 10SM CLR 02/00 A2999 RMK AO2


Station Type Date Time Source
KFXY Decoded METAR 2021/03/02 16:55 UTC NOAA

Station name not available
Mar 02, 2021 - 11:55 AM EST / 2021.03.02 1655 UTC
Wind: from the SSW (210 degrees) at 18 MPH (16 KT) gusting to 25 MPH (22 KT):0
Visibility: 10 mile(s):0
Sky conditions: clear
Temperature: 35 F (2 C)
Windchill: 24 F (-4 C):1
Dew Point: 32 F (0 C)
Relative Humidity: 86%
Pressure (altimeter): 29.99 in. Hg (1015 hPa)
ob: KFXY 021655Z AUTO 21016G22KT 10SM CLR 02/00 A2999 RMK AO2
cycle: 17

Station Type Date Time Source
KFXY TAF UTC NOAA

Error!

Example: see airport list